createdAt,value
2023-04-15T00:01:19.654Z,100473.03
2023-04-15T00:03:54.616Z,100469.69
2023-04-15T00:06:27.585Z,100468.84
2023-04-15T00:09:00.906Z,100469.97
2023-04-15T00:11:33.800Z,100467.19
2023-04-15T00:14:07.420Z,100473.44
2023-04-15T00:16:40.088Z,100469.06
2023-04-15T00:19:13.159Z,100463.72
2023-04-15T00:21:45.885Z,100468.91
2023-04-15T00:24:18.396Z,100459.88
2023-04-15T00:26:50.898Z,100467.75
2023-04-15T00:29:23.495Z,100463.63
2023-04-15T00:31:59.767Z,100465.53
2023-04-15T00:34:32.433Z,100463.72
2023-04-15T00:37:04.921Z,100470.00
2023-04-15T00:39:37.466Z,100464.84
2023-04-15T00:42:10.627Z,100460.44
2023-04-15T00:44:43.159Z,100463.09
2023-04-15T00:47:18.188Z,100468.41
2023-04-15T00:49:51.053Z,100457.81
2023-04-15T00:52:23.660Z,100463.25
2023-04-15T00:54:56.177Z,100469.56
2023-04-15T00:57:29.162Z,100473.09
2023-04-15T01:00:02.591Z,100466.91
2023-04-15T01:02:39.329Z,100463.63
2023-04-15T01:05:12.109Z,100469.56
2023-04-15T01:07:44.647Z,100468.00
2023-04-15T01:10:17.449Z,100455.75
2023-04-15T01:12:49.965Z,100468.09
2023-04-15T01:15:23.005Z,100467.19
2023-04-15T01:17:55.858Z,100476.19
2023-04-15T01:20:29.712Z,100465.69
2023-04-15T01:23:02.660Z,100468.44
2023-04-15T01:25:35.517Z,100463.31
2023-04-15T01:28:09.481Z,100464.44
2023-04-15T01:30:42.198Z,100473.84
2023-04-15T01:33:14.810Z,100471.38
2023-04-15T01:35:47.807Z,100477.69
2023-04-15T01:38:20.521Z,100473.19
2023-04-15T01:40:53.276Z,100470.53
2023-04-15T01:43:26.866Z,100459.09
2023-04-15T01:45:59.353Z,100464.47
2023-04-15T01:48:32.418Z,100465.44
2023-04-15T01:51:05.070Z,100461.81
2023-04-15T01:53:37.676Z,100459.28
2023-04-15T01:56:10.280Z,100457.63
2023-04-15T01:58:42.782Z,100468.94
2023-04-15T02:01:16.874Z,100465.50
2023-04-15T02:03:49.624Z,100472.47
2023-04-15T02:06:22.264Z,100462.97
2023-04-15T02:08:54.772Z,100460.38
2023-04-15T02:11:27.277Z,100465.75
2023-04-15T02:13:59.804Z,100467.59
2023-04-15T02:16:33.703Z,100462.31
2023-04-15T02:19:06.264Z,100470.31
2023-04-15T02:21:38.851Z,100477.34
2023-04-15T02:24:12.326Z,100478.34
2023-04-15T02:26:44.985Z,100476.50
2023-04-15T02:29:17.558Z,100480.22
2023-04-15T02:31:50.190Z,100488.91
2023-04-15T02:34:22.774Z,100487.03
2023-04-15T02:36:57.203Z,100487.03
2023-04-15T02:39:29.801Z,100497.69
2023-04-15T02:42:02.714Z,100488.09
2023-04-15T02:44:36.516Z,100499.63
2023-04-15T02:47:09.092Z,100505.81
2023-04-15T02:49:41.783Z,100501.50
2023-04-15T02:52:14.399Z,100504.13
2023-04-15T02:54:46.882Z,100511.25
2023-04-15T02:57:19.405Z,100506.00
2023-04-15T02:59:51.949Z,100505.13
2023-04-15T03:02:24.738Z,100504.31
2023-04-15T03:04:57.392Z,100500.81
2023-04-15T03:07:31.042Z,100503.44
2023-04-15T03:10:03.734Z,100502.59
2023-04-15T03:12:36.234Z,100504.28
2023-04-15T03:15:09.884Z,100506.03
2023-04-15T03:17:42.639Z,100506.94
2023-04-15T03:20:15.760Z,100504.34
2023-04-15T03:22:48.377Z,100512.25
2023-04-15T03:25:20.953Z,100516.63
2023-04-15T03:27:53.419Z,100520.19
2023-04-15T03:30:26.187Z,100526.41
2023-04-15T03:32:58.755Z,100518.56
2023-04-15T03:35:31.377Z,100528.16
2023-04-15T03:38:03.942Z,100531.66
2023-04-15T03:40:36.680Z,100525.53
2023-04-15T03:43:09.284Z,100531.78
2023-04-15T03:45:42.108Z,100534.38
2023-04-15T03:48:17.241Z,100539.69
2023-04-15T03:50:50.905Z,100534.53
2023-04-15T03:53:23.553Z,100543.19
2023-04-15T03:55:56.094Z,100548.53
2023-04-15T03:58:28.643Z,100549.41
2023-04-15T04:01:01.115Z,100545.09
2023-04-15T04:03:33.843Z,100552.19
2023-04-15T04:06:06.738Z,100554.78
2023-04-15T04:08:39.201Z,100558.38
2023-04-15T04:11:11.761Z,100564.47
2023-04-15T04:13:44.315Z,100567.97
2023-04-15T04:16:17.278Z,100568.00
2023-04-15T04:18:50.310Z,100571.53
2023-04-15T04:21:22.998Z,100584.66
2023-04-15T04:23:56.788Z,100585.56
2023-04-15T04:26:29.315Z,100588.22
2023-04-15T04:29:02.063Z,100596.16
2023-04-15T04:31:34.921Z,100596.13
2023-04-15T04:34:07.786Z,100598.78
2023-04-15T04:36:40.484Z,100601.41
2023-04-15T04:39:13.068Z,100597.91
2023-04-15T04:41:45.762Z,100602.25
2023-04-15T04:44:18.593Z,100613.59
2023-04-15T04:46:51.159Z,100623.25
2023-04-15T04:49:23.702Z,100613.69
2023-04-15T04:51:57.453Z,100613.66
2023-04-15T04:54:31.199Z,100626.75
2023-04-15T04:57:03.751Z,100624.09
2023-04-15T04:59:36.594Z,100632.88
2023-04-15T05:02:09.244Z,100632.88
2023-04-15T05:04:41.792Z,100645.13
2023-04-15T05:07:14.281Z,100636.38
2023-04-15T05:09:47.392Z,100637.25
2023-04-15T05:12:19.954Z,100644.22
2023-04-15T05:14:52.523Z,100650.38
2023-04-15T05:17:25.129Z,100656.50
2023-04-15T05:19:57.614Z,100661.66
2023-04-15T05:22:30.065Z,100663.41
2023-04-15T05:25:02.688Z,100667.84
2023-04-15T05:27:35.590Z,100668.63
2023-04-15T05:30:08.927Z,100669.53
2023-04-15T05:32:41.569Z,100680.06
2023-04-15T05:35:14.277Z,100678.25
2023-04-15T05:37:46.862Z,100685.25
2023-04-15T05:40:20.082Z,100698.34
2023-04-15T05:42:52.600Z,100699.25
2023-04-15T05:45:25.106Z,100703.66
2023-04-15T05:47:57.668Z,100706.19
2023-04-15T05:50:30.484Z,100712.38
2023-04-15T05:53:03.104Z,100717.56
2023-04-15T05:55:35.624Z,100712.31
2023-04-15T05:58:08.140Z,100720.22
2023-04-15T06:00:40.730Z,100722.78
2023-04-15T06:03:13.602Z,100724.53
2023-04-15T06:05:46.179Z,100737.69
2023-04-15T06:08:19.266Z,100732.41
2023-04-15T06:10:51.784Z,100740.22
2023-04-15T06:13:24.368Z,100745.47
2023-04-15T06:15:56.863Z,100755.06
2023-04-15T06:18:29.443Z,100756.81
2023-04-15T06:21:02.024Z,100762.97
2023-04-15T06:23:41.105Z,100764.69
2023-04-15T06:26:13.694Z,100766.25
2023-04-15T06:28:46.214Z,100762.69
2023-04-15T06:31:18.783Z,100766.13
2023-04-15T06:33:51.338Z,100773.06
2023-04-15T06:36:23.844Z,100783.53
2023-04-15T06:38:56.992Z,100781.78
2023-04-15T06:41:29.698Z,100790.38
2023-04-15T06:44:02.555Z,100804.38
2023-04-15T06:46:35.162Z,100806.13
2023-04-15T06:49:08.113Z,100796.41
2023-04-15T06:51:42.759Z,100804.31
2023-04-15T06:54:16.299Z,100808.53
2023-04-15T06:56:49.015Z,100808.44
2023-04-15T06:59:21.577Z,100823.25
2023-04-15T07:01:54.249Z,100820.72
2023-04-15T07:04:27.828Z,100825.72
2023-04-15T07:07:00.708Z,100825.69
2023-04-15T07:09:34.204Z,100829.72
2023-04-15T07:12:06.730Z,100837.00
2023-04-15T07:14:39.271Z,100840.31
2023-04-15T07:17:12.285Z,100833.25
2023-04-15T07:19:44.816Z,100837.50
2023-04-15T07:22:17.319Z,100849.53
2023-04-15T07:24:49.806Z,100844.97
2023-04-15T07:27:22.404Z,100849.25
2023-04-15T07:29:54.894Z,100851.84
2023-04-15T07:32:27.421Z,100861.34
2023-04-15T07:35:00.164Z,100863.66
2023-04-15T07:37:33.537Z,100861.59
2023-04-15T07:40:07.388Z,100873.56
2023-04-15T07:42:41.438Z,100864.84
2023-04-15T07:45:14.072Z,100874.19
2023-04-15T07:47:46.976Z,100875.91
2023-04-15T07:50:19.814Z,100889.88
2023-04-15T07:52:52.898Z,100882.41
2023-04-15T07:55:26.208Z,100890.47
2023-04-15T07:58:00.414Z,100899.78
2023-04-15T08:00:32.917Z,100897.13
2023-04-15T08:03:05.899Z,100898.38
2023-04-15T08:05:38.533Z,100897.66
2023-04-15T08:08:11.062Z,100904.81
2023-04-15T08:10:43.698Z,100915.41
2023-04-15T08:13:16.719Z,100905.44
2023-04-15T08:16:23.514Z,100912.22
2023-04-15T08:18:57.789Z,100917.44
2023-04-15T08:21:30.997Z,100930.91
2023-04-15T08:24:03.884Z,100930.59
2023-04-15T08:26:36.438Z,100931.91
2023-04-15T08:29:09.332Z,100933.59
2023-04-15T08:31:41.913Z,100936.78
2023-04-15T08:34:15.714Z,100941.13
2023-04-15T08:36:48.408Z,100935.63
2023-04-15T08:39:20.954Z,100950.56
2023-04-15T08:42:02.745Z,100951.91
2023-04-15T08:44:36.862Z,100960.84
2023-04-15T08:47:13.066Z,100954.56
2023-04-15T08:49:46.708Z,100973.63
2023-04-15T08:52:20.161Z,100972.94
2023-04-15T08:54:58.487Z,100976.97
2023-04-15T08:57:32.177Z,100980.75
2023-04-15T09:00:06.050Z,100987.94
2023-04-15T09:02:39.210Z,100995.38
2023-04-15T09:05:12.248Z,100999.72
2023-04-15T09:07:44.970Z,101007.81
2023-04-15T09:10:17.921Z,101003.28
2023-04-15T09:12:50.465Z,101010.69
2023-04-15T09:15:27.383Z,101015.88
2023-04-15T09:17:59.940Z,101023.16
2023-04-15T09:20:42.315Z,101025.34
2023-04-15T09:23:17.445Z,101026.91
2023-04-15T09:25:50.475Z,101035.63
2023-04-15T09:28:26.537Z,101037.03
2023-04-15T09:31:01.238Z,101044.38
2023-04-15T09:33:33.835Z,101041.84
2023-04-15T09:36:06.845Z,101054.59
2023-04-15T09:38:57.291Z,101051.03
2023-04-15T09:41:29.845Z,101052.34
2023-04-15T09:44:02.452Z,101048.06
2023-04-15T09:46:45.453Z,101051.22
2023-04-15T09:49:18.246Z,101051.75
2023-04-15T09:52:01.712Z,101060.00
2023-04-15T09:54:42.073Z,101055.41
2023-04-15T09:57:14.581Z,101063.47
2023-04-15T09:59:47.923Z,101070.00
2023-04-15T10:02:23.473Z,101073.88
2023-04-15T10:04:57.669Z,101080.31
2023-04-15T10:07:30.795Z,101064.44
2023-04-15T10:10:05.365Z,101076.13
2023-04-15T10:12:41.458Z,101080.50
2023-04-15T10:15:19.021Z,101076.75
2023-04-15T10:17:56.360Z,101087.34
2023-04-15T10:20:30.507Z,101069.28
2023-04-15T10:23:03.678Z,101078.56
2023-04-15T10:25:37.778Z,101082.84
2023-04-15T10:28:11.331Z,101083.53
2023-04-15T10:30:46.297Z,101094.38
2023-04-15T10:33:23.827Z,101093.19
2023-04-15T10:35:57.674Z,101092.41
2023-04-15T10:38:42.681Z,101090.03
2023-04-15T10:41:25.188Z,101092.88
2023-04-15T10:44:04.656Z,101099.09
2023-04-15T10:46:43.933Z,101096.78
2023-04-15T10:49:25.396Z,101088.38
2023-04-15T10:51:59.755Z,101101.69
2023-04-15T10:54:33.680Z,101102.59
2023-04-15T10:57:06.534Z,101102.38
2023-04-15T11:00:00.008Z,101113.34
2023-04-15T11:02:58.188Z,101104.94
2023-04-15T11:05:43.165Z,101110.03
2023-04-15T11:08:16.703Z,101097.78
2023-04-15T11:10:51.325Z,101104.72
2023-04-15T11:13:27.068Z,101119.25
2023-04-15T11:16:01.638Z,101114.47
2023-04-15T11:18:34.916Z,101110.66
2023-04-15T11:21:09.469Z,101115.38
2023-04-15T11:23:46.781Z,101124.53
2023-04-15T11:26:19.502Z,101113.97
2023-04-15T11:28:52.637Z,101119.56
2023-04-15T11:31:28.675Z,101117.97
2023-04-15T11:34:02.839Z,101132.19
2023-04-15T11:36:35.458Z,101124.53
2023-04-15T11:39:08.068Z,101134.94
2023-04-15T11:41:43.270Z,101129.19
2023-04-15T11:44:19.014Z,101141.44
2023-04-15T11:46:51.538Z,101125.88
2023-04-15T11:49:33.898Z,101142.50
2023-04-15T11:52:12.802Z,101135.53
2023-04-15T11:54:45.395Z,101151.31
2023-04-15T11:57:18.209Z,101149.03
2023-04-15T11:59:55.506Z,101130.66
2023-04-15T12:02:32.407Z,101150.47
2023-04-15T12:05:06.736Z,101151.56
2023-04-15T12:08:00.652Z,101158.63
2023-04-15T12:10:33.217Z,101156.19
2023-04-15T12:13:09.973Z,101174.56
2023-04-15T12:15:43.607Z,101176.63
2023-04-15T12:18:19.748Z,101178.09
2023-04-15T12:20:52.306Z,101166.25
2023-04-15T12:23:24.850Z,101169.88
2023-04-15T12:25:57.555Z,101157.06
2023-04-15T12:28:31.047Z,101182.31
2023-04-15T12:31:11.103Z,101178.22
2023-04-15T12:33:43.720Z,101182.41
2023-04-15T12:36:18.133Z,101177.00
2023-04-15T12:38:50.911Z,101190.16
2023-04-15T12:41:24.436Z,101199.19
2023-04-15T12:43:59.587Z,101208.28
2023-04-15T12:46:32.594Z,101216.66
2023-04-15T12:49:05.190Z,101207.97
2023-04-15T12:51:37.732Z,101216.56
2023-04-15T12:54:10.304Z,101214.38
2023-04-15T12:56:43.411Z,101222.09
2023-04-15T12:59:18.715Z,101218.75
2023-04-15T13:01:53.345Z,101217.44
2023-04-15T13:04:26.163Z,101236.72
2023-04-15T13:06:58.941Z,101233.88
2023-04-15T13:09:31.505Z,101232.03
2023-04-15T13:12:05.404Z,101257.13
2023-04-15T13:14:37.931Z,101232.66
2023-04-15T13:17:11.442Z,101241.00
2023-04-15T13:19:43.963Z,101247.78
2023-04-15T13:22:16.467Z,101239.19
2023-04-15T13:24:49.535Z,101249.97
2023-04-15T13:27:22.383Z,101244.34
2023-04-15T13:29:55.014Z,101255.91
2023-04-15T13:32:27.574Z,101240.06
2023-04-15T13:35:00.184Z,101249.25
2023-04-15T13:37:32.782Z,101259.72
2023-04-15T13:40:07.426Z,101257.31
2023-04-15T13:42:39.985Z,101254.38
2023-04-15T13:45:12.670Z,101270.19
2023-04-15T13:47:45.301Z,101257.66
2023-04-15T13:50:17.888Z,101259.81
2023-04-15T13:52:50.757Z,101267.25
2023-04-15T13:55:26.430Z,101278.88
2023-04-15T13:58:02.350Z,101286.66
2023-04-15T14:00:34.904Z,101286.31
2023-04-15T14:03:07.832Z,101301.72
2023-04-15T14:05:41.224Z,101303.13
2023-04-15T14:08:17.221Z,101282.56
2023-04-15T14:10:49.824Z,101290.06
2023-04-15T14:13:28.802Z,101299.97
2023-04-15T14:16:01.545Z,101303.72
2023-04-15T14:18:34.156Z,101299.63
2023-04-15T14:21:07.123Z,101304.97
2023-04-15T14:23:42.355Z,101313.19
2023-04-15T14:26:15.003Z,101322.63
2023-04-15T14:28:48.578Z,101326.28
2023-04-15T14:31:21.279Z,101323.56
2023-04-15T14:33:53.990Z,101322.53
2023-04-15T14:36:27.403Z,101351.81
2023-04-15T14:39:06.909Z,101332.28
2023-04-15T14:41:39.563Z,101335.34
2023-04-15T14:44:12.160Z,101352.34
2023-04-15T14:46:47.814Z,101346.72
2023-04-15T14:49:20.475Z,101348.75
2023-04-15T14:51:52.993Z,101360.19
2023-04-15T14:54:25.733Z,101358.91
2023-04-15T14:56:58.302Z,101391.28
2023-04-15T14:59:30.996Z,101369.44
2023-04-15T15:02:04.050Z,101358.09
2023-04-15T15:04:37.010Z,101369.44
2023-04-15T15:07:09.575Z,101373.22
2023-04-15T15:09:43.294Z,101371.78
2023-04-15T15:12:16.046Z,101382.28
2023-04-15T15:14:48.714Z,101396.78
2023-04-15T15:17:21.428Z,101392.31
2023-04-15T15:19:53.949Z,101385.56
2023-04-15T15:22:29.283Z,101396.88
2023-04-15T15:25:04.407Z,101389.50
2023-04-15T15:27:38.323Z,101392.50
2023-04-15T15:30:12.598Z,101407.16
2023-04-15T15:32:45.376Z,101402.69
2023-04-15T15:35:18.132Z,101394.66
2023-04-15T15:37:50.785Z,101409.47
2023-04-15T15:40:25.834Z,101418.88
2023-04-15T15:43:00.471Z,101420.28
2023-04-15T15:45:33.161Z,101433.56
2023-04-15T15:48:06.230Z,101437.22
2023-04-15T15:50:39.052Z,101437.25
2023-04-15T15:53:15.303Z,101447.66
2023-04-15T15:55:48.408Z,101461.22
2023-04-15T15:58:21.072Z,101446.31
2023-04-15T16:00:53.732Z,101455.75
2023-04-15T16:03:26.470Z,101459.81
2023-04-15T16:06:00.658Z,101461.16
2023-04-15T16:08:33.178Z,101469.09
2023-04-15T16:11:05.745Z,101478.66
2023-04-15T16:13:38.950Z,101485.53
2023-04-15T16:16:11.657Z,101486.59
2023-04-15T16:18:44.295Z,101486.44
2023-04-15T16:21:16.895Z,101492.72
2023-04-15T16:23:49.436Z,101501.03
2023-04-15T16:26:22.252Z,101495.81
2023-04-15T16:28:57.626Z,101501.03
2023-04-15T16:31:30.549Z,101501.41
2023-04-15T16:34:03.232Z,101520.63
2023-04-15T16:36:36.154Z,101511.13
2023-04-15T16:39:08.679Z,101517.69
2023-04-15T16:41:43.945Z,101522.88
2023-04-15T16:44:16.663Z,101533.56
2023-04-15T16:46:49.238Z,101547.91
2023-04-15T16:49:21.873Z,101529.44
2023-04-15T16:51:54.802Z,101543.41
2023-04-15T16:54:29.104Z,101542.72
2023-04-15T16:57:02.560Z,101555.41
2023-04-15T16:59:35.065Z,101542.56
2023-04-15T17:02:13.662Z,101544.44
2023-04-15T17:04:46.478Z,101552.09
2023-04-15T17:07:18.981Z,101549.56
2023-04-15T17:09:52.763Z,101556.75
2023-04-15T17:12:27.009Z,101563.03
2023-04-15T17:15:03.156Z,101569.47
2023-04-15T17:17:35.824Z,101570.09
2023-04-15T17:20:08.807Z,101575.03
2023-04-15T17:22:41.564Z,101565.63
2023-04-15T17:25:14.743Z,101576.91
2023-04-15T17:27:47.236Z,101574.50
2023-04-15T17:30:19.791Z,101580.72
2023-04-15T17:32:52.375Z,101576.28
2023-04-15T17:35:26.420Z,101594.16
2023-04-15T17:37:59.137Z,101583.84
2023-04-15T17:40:31.645Z,101583.00
2023-04-15T17:43:04.366Z,101583.63
2023-04-15T17:45:37.263Z,101602.38
2023-04-15T17:48:10.489Z,101598.75
2023-04-15T17:50:43.169Z,101603.50
2023-04-15T17:53:16.911Z,101618.53
2023-04-15T17:55:52.979Z,101611.50
2023-04-15T17:58:28.715Z,101614.94
2023-04-15T18:01:01.324Z,101610.53
2023-04-15T18:03:33.996Z,101610.44
2023-04-15T18:06:06.672Z,101607.75
2023-04-15T18:08:39.285Z,101612.34
2023-04-15T18:11:14.938Z,101617.59
2023-04-15T18:13:47.399Z,101618.38
2023-04-15T18:16:20.020Z,101629.91
2023-04-15T18:18:52.737Z,101623.88
2023-04-15T18:21:28.331Z,101622.78
2023-04-15T18:24:00.915Z,101621.06
2023-04-15T18:26:34.124Z,101624.38
2023-04-15T18:29:07.082Z,101629.91
2023-04-15T18:31:39.624Z,101636.91
2023-04-15T18:34:12.758Z,101634.13
2023-04-15T18:36:46.160Z,101639.47
2023-04-15T18:39:18.701Z,101650.81
2023-04-15T18:41:51.179Z,101649.22
2023-04-15T18:44:23.707Z,101651.06
2023-04-15T18:46:56.403Z,101660.06
2023-04-15T18:49:30.158Z,101659.81
2023-04-15T18:52:02.920Z,101662.63
2023-04-15T18:54:36.661Z,101668.78
2023-04-15T18:57:09.229Z,101670.59
2023-04-15T18:59:42.654Z,101672.38
2023-04-15T19:02:15.372Z,101675.06
2023-04-15T19:04:47.931Z,101703.31
2023-04-15T19:07:20.631Z,101696.28
2023-04-15T19:09:55.289Z,101684.97
2023-04-15T19:12:27.881Z,101705.13
2023-04-15T19:15:00.743Z,101714.00
2023-04-15T19:17:33.421Z,101711.31
2023-04-15T19:20:06.798Z,101707.78
2023-04-15T19:22:39.511Z,101706.03
2023-04-15T19:25:12.477Z,101716.66
2023-04-15T19:27:45.011Z,101729.88
2023-04-15T19:30:17.578Z,101718.44
2023-04-15T19:32:50.173Z,101730.72
2023-04-15T19:35:22.732Z,101740.47
2023-04-15T19:37:56.001Z,101736.06
2023-04-15T19:40:28.590Z,101733.44
2023-04-15T19:43:01.051Z,101740.47
2023-04-15T19:45:34.315Z,101738.69
2023-04-15T19:48:07.841Z,101743.13
2023-04-15T19:50:43.544Z,101745.72
2023-04-15T19:53:18.868Z,101747.47
2023-04-15T19:55:51.365Z,101751.88
2023-04-15T19:58:24.085Z,101759.84
2023-04-15T20:00:58.138Z,101765.09
2023-04-15T20:03:33.246Z,101756.31
2023-04-15T20:06:05.901Z,101755.44
2023-04-15T20:08:38.415Z,101745.75
2023-04-15T20:11:12.219Z,101754.56
2023-04-15T20:13:47.682Z,101760.72
2023-04-15T20:16:20.558Z,101758.97
2023-04-15T20:18:53.122Z,101758.09
2023-04-15T20:21:25.807Z,101755.47
2023-04-15T20:23:58.386Z,101754.56
2023-04-15T20:26:31.397Z,101754.56
2023-04-15T20:29:04.191Z,101748.41
2023-04-15T20:31:37.326Z,101761.56
2023-04-15T20:34:12.093Z,101770.34
2023-04-15T20:36:44.770Z,101765.06
2023-04-15T20:39:17.425Z,101765.06
2023-04-15T20:41:50.660Z,101768.63
2023-04-15T20:44:23.200Z,101758.97
2023-04-15T20:46:56.105Z,101763.38
2023-04-15T20:49:28.650Z,101771.28
2023-04-15T20:52:02.247Z,101771.25
2023-04-15T20:54:35.798Z,101766.84
2023-04-15T20:57:08.304Z,101788.03
2023-04-15T20:59:40.813Z,101777.31
2023-04-15T21:02:13.437Z,101780.88
2023-04-15T21:04:47.069Z,101786.16
2023-04-15T21:07:19.612Z,101779.03
2023-04-15T21:09:52.118Z,101778.25
2023-04-15T21:12:24.651Z,101772.97
2023-04-15T21:14:57.182Z,101783.50
2023-04-15T21:17:29.761Z,101774.72
2023-04-15T21:20:02.366Z,101789.63
2023-04-15T21:22:34.931Z,101790.50
2023-04-15T21:25:08.083Z,101797.50
2023-04-15T21:27:40.660Z,101790.50
2023-04-15T21:30:13.416Z,101789.69
2023-04-15T21:32:45.993Z,101794.84
2023-04-15T21:35:18.619Z,101799.31
2023-04-15T21:37:51.134Z,101793.97
2023-04-15T21:40:23.702Z,101793.91
2023-04-15T21:42:56.272Z,101798.38
2023-04-15T21:45:29.391Z,101800.19
2023-04-15T21:48:08.010Z,101808.91
2023-04-15T21:50:41.140Z,101805.34
2023-04-15T21:53:13.680Z,101811.59
2023-04-15T21:55:46.210Z,101820.25
2023-04-15T21:58:18.720Z,101814.94
2023-04-15T22:00:52.813Z,101821.09
2023-04-15T22:03:28.824Z,101817.53
2023-04-15T22:06:05.315Z,101828.06
2023-04-15T22:08:48.376Z,101827.88
2023-04-15T22:11:30.256Z,101821.94
2023-04-15T22:14:02.871Z,101820.81
2023-04-15T22:16:35.512Z,101809.56
2023-04-15T22:19:08.184Z,101819.19
2023-04-15T22:21:41.270Z,101814.09
2023-04-15T22:24:38.141Z,101822.72
2023-04-15T22:27:06.540Z,101812.13
2023-04-15T22:29:39.057Z,101816.50
2023-04-15T22:32:11.569Z,101831.53
2023-04-15T22:34:44.129Z,101828.03
2023-04-15T22:37:16.606Z,101836.75
2023-04-15T22:39:51.937Z,101836.00
2023-04-15T22:42:24.999Z,101843.81
2023-04-15T22:44:57.567Z,101841.06
2023-04-15T22:47:30.220Z,101844.53
2023-04-15T22:50:02.804Z,101853.38
2023-04-15T22:52:35.371Z,101840.25
2023-04-15T22:55:08.737Z,101857.00
2023-04-15T22:57:41.353Z,101858.72
2023-04-15T23:00:14.125Z,101867.59
2023-04-15T23:02:46.752Z,101868.44
2023-04-15T23:05:19.492Z,101870.88
2023-04-15T23:07:52.054Z,101870.84
2023-04-15T23:10:24.558Z,101872.69
2023-04-15T23:12:57.087Z,101881.56
2023-04-15T23:15:29.689Z,101878.09
2023-04-15T23:18:02.484Z,101879.56
2023-04-15T23:20:36.123Z,101873.56
2023-04-15T23:23:08.683Z,101888.53
2023-04-15T23:25:42.084Z,101878.47
2023-04-15T23:28:14.702Z,101882.97
2023-04-15T23:30:47.403Z,101886.44
2023-04-15T23:33:19.898Z,101886.44
2023-04-15T23:35:52.503Z,101888.09
2023-04-15T23:38:24.986Z,101881.34
2023-04-15T23:40:57.528Z,101888.22
2023-04-15T23:43:30.234Z,101883.66
2023-04-15T23:46:02.783Z,101885.63
2023-04-15T23:48:35.338Z,101885.69
2023-04-15T23:51:08.153Z,101887.47
2023-04-15T23:53:40.732Z,101895.06
2023-04-15T23:56:13.276Z,101898.00
2023-04-15T23:58:45.851Z,101887.69
